Air Sicilia Virtual Airways - Rotta

Air Sicilia Virtual Airways - SIC046A

( IT ) LICA - 00:00
Lamezia Terme Airport
LAMEZIA TERME ( SUF )
plane_to ( IT ) LICJ - 00:00
Falcone–Borsellino Airport
PALERMO ( PMO )

AIRPORT NEAR NAVIGATION AIDS

Tipo Nome Frequenza
VOR-DME Lamezia Terme 112500 KHZ

METAR / TAF
LICA 250520Z AUTO 11004KT 060V210 9999 BKN062 M01/M03 Q1029
LICA 242300Z 2500/2524 01013KT 9999 SCT025

INFORMAZIONI PISTE

Pista Lunghezza pista Larghezza pista Elevazione pista Runway displaced threshold Prua pista
10 7920 148 20 348 99
28 7920 148 39 351 279

FREQUENZE AEROPORTO

Tipo Nome Frequenza
APP APP 118.8 MHZ
TWR TWR 119.7 MHZ

AIRPORT NEAR NAVIGATION AIDS

Tipo Nome Frequenza
VOR-DME Palermo 112300 KHZ
NDB Palermo 356 KHZ
VOR-DME Raisi 113000 KHZ
NDB Raisi 329 KHZ

METAR / TAF
LICJ 250520Z 05012KT 9999 FEW060 08/M04 Q1029
LICJ 242300Z 2500/2524 05014KT 9999 SCT030

INFORMAZIONI PISTE

Pista Lunghezza pista Larghezza pista Elevazione pista Runway displaced threshold Prua pista
02 6804 148 42 10 24
20 6804 148 22 10 204
07 10912 197 33 404 66.9
25 10912 197 50 679 246.9

FREQUENZE AEROPORTO

Tipo Nome Frequenza
APP APP 120.2 MHZ
GND RAISI GND 121.625 MHZ
TWR RAISI TWR 119.05 MHZ

Piano di volo

PEROS L869 PELEN

Air Sicilia Virtual Airways Aerei

Aerei disponibili per la rotta in questo momento a Lamezia Terme Airport

At this time no aircraft Air Sicilia Virtual Airways is available at Lamezia Terme Airport
Only Charter flights.

154.5 NM

Distanza in Miglia Nautiche.

€ 250,00

Costo del biglietto per questo volo.

0.52 h.

Tempo di volo stimato.




12-11-2018
Aerosoft Airport Rio de Janeiro International V2.0 XP

L'Aeroporto Internazionale di Rio de Janeiro-Galeão (IATA: GIG, ICAO: SBGL), costruito nel 1952 nel quartiere di Ilha do Governador ed intitolato al musicista Antônio Carlos Jobim, è il principale aeroporto internazio ....


15-10-2018
Aerosoft A320 Family professional

La gamma di aeromobili A320 è una delle più comuni nei cieli. Questi aerei di linea a doppio-getto a corto e medio raggio si sono dimostrati convenienti, affidabili e prontamente disponibili, rendendoli le opzioni migl ....


10-10-2018
Motore critico ( Critical Engine )

Il motore critico di un velivolo ad ala fissa multi-motore è il motore che, in caso di guasto, influirebbe negativamente sulle prestazioni o sulla capacità di manovra di un aereo. Sui velivoli ad elica, vi è un ....


04-10-2018
Aerosoft Dortmund XP

Scopri il centro della regione della Ruhr su XPlane 11 - lo scenario Dortmund XP è una ricostruzione completa della città di Dortmund per il simulatore di volo targato Laminar. Oltre all'intera area urbana di Dortmu ....


07-08-2018
Aerosoft Professional Flight Planner PFPX

PFPX - Professional Flight Planner X - è un nuovo ed innovativo strumento di pianificazione del volo sviluppato da piloti e dispatcher del mondo reale. È un'aggiunta preziosa e realistica alla tua esperienza di simulaz ....